createdAt,value
2023-05-09T00:00:25.223Z,7.66
2023-05-09T00:01:17.790Z,7.61
2023-05-09T00:01:51.198Z,7.60
2023-05-09T00:02:24.774Z,7.59
2023-05-09T00:02:58.191Z,7.56
2023-05-09T00:03:33.493Z,7.58
2023-05-09T00:04:06.835Z,7.58
2023-05-09T00:04:40.227Z,7.58
2023-05-09T00:05:15.376Z,7.56
2023-05-09T00:05:49.157Z,7.56
2023-05-09T00:06:22.402Z,7.54
2023-05-09T00:06:55.777Z,7.54
2023-05-09T00:07:29.353Z,7.54
2023-05-09T00:08:02.701Z,7.54
2023-05-09T00:08:36.369Z,7.54
2023-05-09T00:09:09.803Z,7.53
2023-05-09T00:09:45.137Z,7.52
2023-05-09T00:10:21.910Z,7.52
2023-05-09T00:10:56.908Z,7.52
2023-05-09T00:11:30.305Z,7.52
2023-05-09T00:12:04.453Z,7.52
2023-05-09T00:12:37.715Z,7.52
2023-05-09T00:13:11.181Z,7.52
2023-05-09T00:13:44.801Z,7.53
2023-05-09T00:14:18.561Z,7.53
2023-05-09T00:14:52.098Z,7.52
2023-05-09T00:15:26.275Z,7.51
2023-05-09T00:15:59.689Z,7.51
2023-05-09T00:16:33.368Z,7.52
2023-05-09T00:17:08.107Z,7.50
2023-05-09T00:17:41.885Z,7.48
2023-05-09T00:18:15.519Z,7.49
2023-05-09T00:18:48.868Z,7.47
2023-05-09T00:19:22.250Z,7.49
2023-05-09T00:19:55.758Z,7.50
2023-05-09T00:20:29.171Z,7.48
2023-05-09T00:21:04.544Z,7.48
2023-05-09T00:21:37.755Z,7.47
2023-05-09T00:22:13.255Z,7.45
2023-05-09T00:22:46.558Z,7.46
2023-05-09T00:23:19.942Z,7.45
2023-05-09T00:23:53.446Z,7.44
2023-05-09T00:24:26.741Z,7.42
2023-05-09T00:24:59.971Z,7.40
2023-05-09T00:25:33.795Z,7.39
2023-05-09T00:26:07.135Z,7.38
2023-05-09T00:26:40.476Z,7.35
2023-05-09T00:27:13.861Z,7.34
2023-05-09T00:27:47.086Z,7.34
2023-05-09T00:28:20.883Z,7.33
2023-05-09T00:28:54.091Z,7.29
2023-05-09T00:29:27.393Z,7.32
2023-05-09T00:30:00.842Z,7.31
2023-05-09T00:30:34.420Z,7.31
2023-05-09T00:31:07.614Z,7.28
2023-05-09T00:31:41.021Z,7.27
2023-05-09T00:32:15.097Z,7.27
2023-05-09T00:32:48.419Z,7.25
2023-05-09T00:33:21.843Z,7.25
2023-05-09T00:33:55.082Z,7.26
2023-05-09T00:34:28.340Z,7.25
2023-05-09T00:35:01.597Z,7.24
2023-05-09T00:35:35.485Z,7.25
2023-05-09T00:36:08.900Z,7.26
2023-05-09T00:36:42.366Z,7.24
2023-05-09T00:37:18.365Z,7.23
2023-05-09T00:37:51.748Z,7.21
2023-05-09T00:38:25.081Z,7.20
2023-05-09T00:38:58.398Z,7.19
2023-05-09T00:39:31.617Z,7.19
2023-05-09T00:40:06.712Z,7.18
2023-05-09T00:40:39.984Z,7.17
2023-05-09T00:41:13.474Z,7.16
2023-05-09T00:41:46.934Z,7.16
2023-05-09T00:42:20.116Z,7.16
2023-05-09T00:42:53.478Z,7.15
2023-05-09T00:43:26.854Z,7.15
2023-05-09T00:44:00.174Z,7.14
2023-05-09T00:44:33.431Z,7.13
2023-05-09T00:45:07.674Z,7.12
2023-05-09T00:45:41.708Z,7.13
2023-05-09T00:46:15.031Z,7.11
2023-05-09T00:46:48.874Z,7.10
2023-05-09T00:47:24.130Z,7.06
2023-05-09T00:47:58.152Z,7.06
2023-05-09T00:48:31.679Z,7.04
2023-05-09T00:49:05.643Z,7.02
2023-05-09T00:49:39.019Z,7.00
2023-05-09T00:50:12.364Z,7.04
2023-05-09T00:50:46.485Z,7.03
2023-05-09T00:51:20.738Z,6.97
2023-05-09T00:51:55.006Z,6.95
2023-05-09T00:52:28.728Z,6.95
2023-05-09T00:53:04.167Z,6.95
2023-05-09T00:53:37.548Z,6.93
2023-05-09T00:54:12.241Z,6.93
2023-05-09T00:54:45.610Z,6.94
2023-05-09T00:55:19.889Z,6.95
2023-05-09T00:55:55.901Z,6.94
2023-05-09T00:56:30.424Z,6.93
2023-05-09T00:57:03.776Z,6.93
2023-05-09T00:57:37.418Z,6.90
2023-05-09T00:58:11.671Z,6.90
2023-05-09T00:58:45.611Z,6.90
2023-05-09T00:59:19.132Z,6.89
2023-05-09T00:59:52.571Z,6.88
2023-05-09T01:00:26.091Z,6.88
2023-05-09T01:01:02.052Z,6.89
2023-05-09T01:01:35.729Z,6.90
2023-05-09T01:02:08.960Z,6.85
2023-05-09T01:02:48.968Z,6.82
2023-05-09T01:03:22.753Z,6.78
2023-05-09T01:03:56.265Z,6.76
2023-05-09T01:04:29.540Z,6.76
2023-05-09T01:05:02.852Z,6.76
2023-05-09T01:05:57.115Z,6.74
2023-05-09T01:06:45.266Z,6.68
2023-05-09T01:07:58.799Z,6.68
2023-05-09T01:08:48.433Z,6.60
2023-05-09T01:09:24.392Z,6.58
2023-05-09T01:10:22.412Z,6.59
2023-05-09T01:11:03.105Z,6.51
2023-05-09T01:11:45.992Z,6.49
2023-05-09T01:12:42.949Z,6.50
2023-05-09T01:13:35.021Z,6.50
2023-05-09T01:14:29.305Z,6.51
2023-05-09T01:15:21.773Z,6.52
2023-05-09T01:16:27.213Z,6.53
2023-05-09T01:17:13.768Z,6.54
2023-05-09T01:18:01.321Z,6.54
2023-05-09T01:18:46.257Z,6.53
2023-05-09T01:19:43.047Z,6.57
2023-05-09T01:20:36.470Z,6.54
2023-05-09T01:21:16.077Z,6.54
2023-05-09T01:21:50.014Z,6.55
2023-05-09T01:22:32.160Z,6.57
2023-05-09T01:23:39.018Z,6.59
2023-05-09T01:24:33.580Z,6.59
2023-05-09T01:25:30.337Z,6.60
2023-05-09T01:26:16.991Z,6.61
2023-05-09T01:27:01.818Z,6.61
2023-05-09T01:28:08.127Z,6.63
2023-05-09T01:28:47.099Z,6.61
2023-05-09T01:29:37.667Z,6.61
2023-05-09T01:30:13.719Z,6.60
2023-05-09T01:30:51.512Z,6.60
2023-05-09T01:31:27.114Z,6.61
2023-05-09T01:32:07.614Z,6.61
2023-05-09T01:32:43.490Z,6.62
2023-05-09T01:33:20.505Z,6.61
2023-05-09T01:33:58.762Z,6.59
2023-05-09T01:34:35.386Z,6.60
2023-05-09T01:35:13.811Z,6.61
2023-05-09T01:35:53.989Z,6.62
2023-05-09T01:36:33.215Z,6.61
2023-05-09T01:37:07.745Z,6.57
2023-05-09T01:37:43.750Z,6.55
2023-05-09T01:38:20.091Z,6.55
2023-05-09T01:38:54.713Z,6.57
2023-05-09T01:39:29.188Z,6.58
2023-05-09T01:40:10.656Z,6.60
2023-05-09T01:40:47.825Z,6.61
2023-05-09T01:41:22.824Z,6.63
2023-05-09T01:41:58.664Z,6.64
2023-05-09T01:42:39.798Z,6.66
2023-05-09T01:43:15.284Z,6.66
2023-05-09T01:43:51.535Z,6.64
2023-05-09T01:44:26.873Z,6.66
2023-05-09T01:45:00.762Z,6.67
2023-05-09T01:45:36.229Z,6.69
2023-05-09T01:46:10.103Z,6.70
2023-05-09T01:46:45.205Z,6.72
2023-05-09T01:47:19.929Z,6.73
2023-05-09T01:48:30.394Z,6.76
2023-05-09T01:50:45.826Z,6.74
2023-05-09T01:51:21.757Z,6.72
2023-05-09T01:51:56.540Z,6.72
2023-05-09T01:52:30.681Z,6.71
2023-05-09T01:53:06.378Z,6.74
2023-05-09T01:53:41.286Z,6.75
2023-05-09T01:54:15.698Z,6.76
2023-05-09T01:54:51.703Z,6.75
2023-05-09T01:55:31.076Z,6.73
2023-05-09T01:56:09.607Z,6.76
2023-05-09T01:56:43.589Z,6.76
2023-05-09T01:57:19.092Z,6.75
2023-05-09T01:57:54.368Z,6.76
2023-05-09T01:58:29.099Z,6.78
2023-05-09T01:59:04.236Z,6.79
2023-05-09T01:59:41.546Z,6.80
2023-05-09T02:00:15.582Z,6.81
2023-05-09T02:00:53.784Z,6.80
2023-05-09T02:01:27.729Z,6.83
2023-05-09T02:02:03.869Z,6.84
2023-05-09T02:02:38.176Z,6.84
2023-05-09T02:03:12.074Z,6.86
2023-05-09T02:03:50.778Z,6.86
2023-05-09T02:04:24.885Z,6.87
2023-05-09T02:04:58.892Z,6.88
2023-05-09T02:05:33.765Z,6.89
2023-05-09T02:06:08.797Z,6.89
2023-05-09T02:06:44.750Z,6.90
2023-05-09T02:07:18.643Z,6.91
2023-05-09T02:07:53.363Z,6.92
2023-05-09T02:08:26.900Z,6.92
2023-05-09T02:09:01.773Z,6.92
2023-05-09T02:09:36.118Z,6.93
2023-05-09T02:10:11.096Z,6.93
2023-05-09T02:10:44.952Z,6.92
2023-05-09T02:11:18.237Z,6.92
2023-05-09T02:11:51.688Z,6.93
2023-05-09T02:12:26.986Z,6.93
2023-05-09T02:13:00.330Z,6.93
2023-05-09T02:13:33.925Z,6.93
2023-05-09T02:14:07.473Z,6.92
2023-05-09T02:14:40.907Z,6.90
2023-05-09T02:15:14.365Z,6.90
2023-05-09T02:15:48.188Z,6.91
2023-05-09T02:16:23.293Z,6.90
2023-05-09T02:16:56.713Z,6.90
2023-05-09T02:17:31.020Z,6.90
2023-05-09T02:18:04.710Z,6.90
2023-05-09T02:18:38.692Z,6.89
2023-05-09T02:19:12.251Z,6.89
2023-05-09T02:19:45.913Z,6.87
2023-05-09T02:20:19.370Z,6.88
2023-05-09T02:20:52.766Z,6.88
2023-05-09T02:21:27.318Z,6.86
2023-05-09T02:22:05.259Z,6.84
2023-05-09T02:22:41.120Z,6.83
2023-05-09T02:23:14.519Z,6.83
2023-05-09T02:23:48.080Z,6.83
2023-05-09T02:24:21.451Z,6.83
2023-05-09T02:24:54.858Z,6.81
2023-05-09T02:25:28.256Z,6.85
2023-05-09T02:26:02.409Z,6.84
2023-05-09T02:26:36.473Z,6.82
2023-05-09T02:27:11.942Z,6.83
2023-05-09T02:27:46.966Z,6.83
2023-05-09T02:28:22.751Z,6.83
2023-05-09T02:28:57.083Z,6.81
2023-05-09T02:29:40.435Z,6.79
2023-05-09T02:30:28.092Z,6.76
2023-05-09T02:31:07.254Z,6.73
2023-05-09T02:31:41.895Z,6.69
2023-05-09T02:32:23.421Z,6.69
2023-05-09T02:33:05.273Z,6.69
2023-05-09T02:33:39.914Z,6.69
2023-05-09T02:34:14.266Z,6.68
2023-05-09T02:34:49.266Z,6.67
2023-05-09T02:35:25.330Z,6.68
2023-05-09T02:35:58.804Z,6.68
2023-05-09T02:36:32.961Z,6.69
2023-05-09T02:37:08.053Z,6.67
2023-05-09T02:37:42.088Z,6.67
2023-05-09T02:38:16.259Z,6.67
2023-05-09T02:38:49.815Z,6.68
2023-05-09T02:39:23.159Z,6.69
2023-05-09T02:39:56.951Z,6.70
2023-05-09T02:40:31.007Z,6.70
2023-05-09T02:41:04.530Z,6.70
2023-05-09T02:41:37.774Z,6.71
2023-05-09T02:42:14.131Z,6.72
2023-05-09T02:42:47.514Z,6.73
2023-05-09T02:43:21.363Z,6.72
2023-05-09T02:43:55.466Z,6.73
2023-05-09T02:44:28.721Z,6.74
2023-05-09T02:45:02.052Z,6.71
2023-05-09T02:45:35.812Z,6.73
2023-05-09T02:46:10.397Z,6.74
2023-05-09T02:46:43.678Z,6.74
2023-05-09T02:47:17.054Z,6.74
2023-05-09T02:47:50.455Z,6.75
2023-05-09T02:48:23.773Z,6.76
2023-05-09T02:48:57.170Z,6.76
2023-05-09T02:49:32.579Z,6.78
2023-05-09T02:50:07.244Z,6.78
2023-05-09T02:50:43.026Z,6.79
2023-05-09T02:51:16.395Z,6.79
2023-05-09T02:51:49.669Z,6.79
2023-05-09T02:52:23.092Z,6.79
2023-05-09T02:52:56.372Z,6.79
2023-05-09T02:53:29.630Z,6.79
2023-05-09T02:54:03.581Z,6.80
2023-05-09T02:54:37.768Z,6.80
2023-05-09T02:55:11.206Z,6.80
2023-05-09T02:55:46.070Z,6.81
2023-05-09T02:56:19.233Z,6.80
2023-05-09T02:56:52.818Z,6.82
2023-05-09T02:57:26.210Z,6.80
2023-05-09T02:58:12.634Z,6.81
2023-05-09T02:58:51.565Z,6.80
2023-05-09T02:59:26.300Z,6.78
2023-05-09T03:00:00.358Z,6.77
2023-05-09T03:00:33.850Z,6.76
2023-05-09T03:01:07.372Z,6.75
2023-05-09T03:01:40.658Z,6.75
2023-05-09T03:02:15.138Z,6.75
2023-05-09T03:02:49.292Z,6.75
2023-05-09T03:03:23.553Z,6.75
2023-05-09T03:03:57.217Z,6.73
2023-05-09T03:04:31.016Z,6.74
2023-05-09T03:05:04.676Z,6.73
2023-05-09T03:05:39.196Z,6.74
2023-05-09T03:06:12.552Z,6.73
2023-05-09T03:06:45.974Z,6.73
2023-05-09T03:07:19.492Z,6.73
2023-05-09T03:07:52.982Z,6.72
2023-05-09T03:08:26.297Z,6.72
2023-05-09T03:09:01.016Z,6.71
2023-05-09T03:09:35.733Z,6.70
2023-05-09T03:10:11.560Z,6.68
2023-05-09T03:10:44.943Z,6.68
2023-05-09T03:11:18.290Z,6.67
2023-05-09T03:11:52.638Z,6.68
2023-05-09T03:12:25.927Z,6.67
2023-05-09T03:13:00.624Z,6.68
2023-05-09T03:13:33.899Z,6.65
2023-05-09T03:14:08.657Z,6.65
2023-05-09T03:14:42.060Z,6.66
2023-05-09T03:15:15.445Z,6.64
2023-05-09T03:15:49.570Z,6.62
2023-05-09T03:16:22.976Z,6.61
2023-05-09T03:16:57.410Z,6.62
2023-05-09T03:17:38.120Z,6.59
2023-05-09T03:18:12.566Z,6.58
2023-05-09T03:18:46.389Z,6.57
2023-05-09T03:19:19.733Z,6.56
2023-05-09T03:19:52.983Z,6.57
2023-05-09T03:20:27.749Z,6.56
2023-05-09T03:21:01.095Z,6.56
2023-05-09T03:21:35.658Z,6.53
2023-05-09T03:22:08.990Z,6.54
2023-05-09T03:22:44.200Z,6.54
2023-05-09T03:23:18.047Z,6.52
2023-05-09T03:23:51.489Z,6.50
2023-05-09T03:24:28.364Z,6.50
2023-05-09T03:25:01.812Z,6.49
2023-05-09T03:25:35.272Z,6.49
2023-05-09T03:26:08.526Z,6.47
2023-05-09T03:26:42.044Z,6.44
2023-05-09T03:27:15.458Z,6.44
2023-05-09T03:27:48.662Z,6.44
2023-05-09T03:28:22.068Z,6.43
2023-05-09T03:28:55.739Z,6.41
2023-05-09T03:29:28.993Z,6.41
2023-05-09T03:30:02.266Z,6.38
2023-05-09T03:30:35.598Z,6.35
2023-05-09T03:31:09.845Z,6.30
2023-05-09T03:31:43.366Z,6.31
2023-05-09T03:32:16.935Z,6.31
2023-05-09T03:32:50.474Z,6.31
2023-05-09T03:33:23.861Z,6.31
2023-05-09T03:33:57.378Z,6.29
2023-05-09T03:34:31.423Z,6.29
2023-05-09T03:35:05.105Z,6.27
2023-05-09T03:35:38.897Z,6.28
2023-05-09T03:36:12.267Z,6.28
2023-05-09T03:36:46.578Z,6.27
2023-05-09T03:37:20.883Z,6.28
2023-05-09T03:37:54.237Z,6.26
2023-05-09T03:38:27.512Z,6.27
2023-05-09T03:39:00.904Z,6.27
2023-05-09T03:39:34.338Z,6.29
2023-05-09T03:40:08.269Z,6.28
2023-05-09T03:40:46.630Z,6.27
2023-05-09T03:41:22.341Z,6.26
2023-05-09T03:41:55.768Z,6.27
2023-05-09T03:42:29.019Z,6.25
2023-05-09T03:43:03.612Z,6.23
2023-05-09T03:43:37.540Z,6.20
2023-05-09T03:44:10.838Z,6.20
2023-05-09T03:44:44.056Z,6.19
2023-05-09T03:45:17.267Z,6.19
2023-05-09T03:45:51.666Z,6.18
2023-05-09T03:46:24.838Z,6.18
2023-05-09T03:46:58.790Z,6.18
2023-05-09T03:47:32.563Z,6.20
2023-05-09T03:48:08.692Z,6.18
2023-05-09T03:48:42.112Z,6.18
2023-05-09T03:49:15.881Z,6.17
2023-05-09T03:49:49.589Z,6.16
2023-05-09T03:50:24.077Z,6.14
2023-05-09T03:50:57.447Z,6.15
2023-05-09T03:51:32.468Z,6.15
2023-05-09T03:52:07.450Z,6.15
2023-05-09T03:52:40.660Z,6.16
2023-05-09T03:53:13.986Z,6.12
2023-05-09T03:53:48.265Z,6.14
2023-05-09T03:54:21.706Z,6.13
2023-05-09T03:54:54.976Z,6.14
2023-05-09T03:55:28.454Z,6.14
2023-05-09T03:56:04.073Z,6.13
2023-05-09T03:56:38.652Z,6.12
2023-05-09T03:57:11.970Z,6.12
2023-05-09T03:57:45.258Z,6.12
2023-05-09T03:58:19.542Z,6.12
2023-05-09T03:58:53.208Z,6.12
2023-05-09T03:59:26.590Z,6.12
2023-05-09T03:59:59.944Z,6.12
2023-05-09T04:00:33.261Z,6.13
2023-05-09T04:01:10.954Z,6.13
2023-05-09T04:01:45.483Z,6.12
2023-05-09T04:02:19.167Z,6.11
2023-05-09T04:02:53.436Z,6.12
2023-05-09T04:03:34.555Z,6.11
2023-05-09T04:04:08.948Z,6.12
2023-05-09T04:04:42.543Z,6.13
2023-05-09T04:05:17.415Z,6.12
2023-05-09T04:05:51.253Z,6.13
2023-05-09T04:06:34.240Z,6.12
2023-05-09T04:07:07.619Z,6.13
2023-05-09T04:07:41.975Z,6.13
2023-05-09T04:08:15.495Z,6.13
2023-05-09T04:08:48.935Z,6.14
2023-05-09T04:09:22.240Z,6.15
2023-05-09T04:09:58.687Z,6.16
2023-05-09T04:10:32.865Z,6.16
2023-05-09T04:11:06.411Z,6.16
2023-05-09T04:11:40.726Z,6.18
2023-05-09T04:12:15.918Z,6.18
2023-05-09T04:12:49.237Z,6.17
2023-05-09T04:13:23.022Z,6.17
2023-05-09T04:13:56.674Z,6.16
2023-05-09T04:14:39.805Z,6.15
2023-05-09T04:15:13.469Z,6.14
2023-05-09T04:15:47.049Z,6.14
2023-05-09T04:16:20.482Z,6.16
2023-05-09T04:16:53.836Z,6.17
2023-05-09T04:17:27.322Z,6.16
2023-05-09T04:18:00.853Z,6.15
2023-05-09T04:18:34.595Z,6.15
2023-05-09T04:19:07.971Z,6.16
2023-05-09T04:19:41.711Z,6.16
2023-05-09T04:20:15.326Z,6.15
2023-05-09T04:20:49.017Z,6.15
2023-05-09T04:21:22.231Z,6.16
2023-05-09T04:21:57.473Z,6.17
2023-05-09T04:22:30.793Z,6.16
2023-05-09T04:23:04.266Z,6.19
2023-05-09T04:23:39.008Z,6.19
2023-05-09T04:24:12.790Z,6.19
2023-05-09T04:24:49.974Z,6.20
2023-05-09T04:25:23.758Z,6.20
2023-05-09T04:25:57.085Z,6.21
2023-05-09T04:26:31.716Z,6.21
2023-05-09T04:27:08.113Z,6.23
2023-05-09T04:27:41.903Z,6.22
2023-05-09T04:28:15.155Z,6.23
2023-05-09T04:28:48.415Z,6.22
2023-05-09T04:29:22.280Z,6.22
2023-05-09T04:29:58.900Z,6.21
2023-05-09T04:30:32.749Z,6.19
2023-05-09T04:31:06.656Z,6.20
2023-05-09T04:31:40.481Z,6.19
2023-05-09T04:32:14.489Z,6.19
2023-05-09T04:32:49.134Z,6.20
2023-05-09T04:33:24.383Z,6.20
2023-05-09T04:33:58.951Z,6.19
2023-05-09T04:34:32.656Z,6.19
2023-05-09T04:35:09.303Z,6.18
2023-05-09T04:35:46.297Z,6.17
2023-05-09T04:36:19.594Z,6.09
2023-05-09T04:36:53.347Z,6.19
2023-05-09T04:37:26.936Z,6.18
2023-05-09T04:38:00.883Z,6.17
2023-05-09T04:38:34.135Z,6.16
2023-05-09T04:39:08.349Z,6.15
2023-05-09T04:39:42.455Z,6.15
2023-05-09T04:40:21.775Z,6.14
2023-05-09T04:41:06.100Z,6.13
2023-05-09T04:41:39.419Z,6.12
2023-05-09T04:42:12.810Z,6.12
2023-05-09T04:42:46.127Z,6.13
2023-05-09T04:43:19.456Z,6.14
2023-05-09T04:43:52.745Z,6.16
2023-05-09T04:44:27.778Z,6.16
2023-05-09T04:45:01.305Z,6.18
2023-05-09T04:45:34.809Z,6.15
2023-05-09T04:46:08.471Z,6.18
2023-05-09T04:46:42.250Z,6.18
2023-05-09T04:47:15.614Z,6.18
2023-05-09T04:47:48.868Z,6.20
2023-05-09T04:48:22.339Z,6.21
2023-05-09T04:48:56.391Z,6.22
2023-05-09T04:49:29.719Z,6.24
2023-05-09T04:50:03.441Z,6.24
2023-05-09T04:50:36.814Z,6.22
2023-05-09T04:51:10.466Z,6.27
2023-05-09T04:51:43.836Z,6.24
2023-05-09T04:52:17.323Z,6.26
2023-05-09T04:52:50.835Z,6.24
2023-05-09T04:53:24.171Z,6.23
2023-05-09T04:53:57.610Z,6.23
2023-05-09T04:54:34.935Z,6.22
2023-05-09T04:55:10.083Z,6.24
2023-05-09T04:55:46.726Z,6.28
2023-05-09T04:56:20.065Z,6.30
2023-05-09T04:56:57.945Z,6.29
2023-05-09T04:57:37.424Z,6.25
2023-05-09T04:58:10.740Z,6.29
2023-05-09T04:58:44.258Z,6.28
2023-05-09T04:59:17.637Z,6.29
2023-05-09T04:59:51.515Z,6.27
2023-05-09T05:00:25.063Z,6.26
2023-05-09T05:00:58.608Z,6.28
2023-05-09T05:01:31.842Z,6.26
2023-05-09T05:02:05.430Z,6.29
2023-05-09T05:02:39.186Z,6.30
2023-05-09T05:03:13.046Z,6.30
2023-05-09T05:03:46.345Z,6.31
2023-05-09T05:04:19.783Z,6.32
2023-05-09T05:04:57.968Z,6.33
2023-05-09T05:05:37.689Z,6.30
2023-05-09T05:06:11.974Z,6.32
2023-05-09T05:06:45.969Z,6.31
2023-05-09T05:07:19.343Z,6.33
2023-05-09T05:07:54.406Z,6.32
2023-05-09T05:08:29.568Z,6.33
2023-05-09T05:09:02.869Z,6.34
2023-05-09T05:09:36.375Z,6.35
2023-05-09T05:10:10.180Z,6.36
2023-05-09T05:10:43.723Z,6.37
2023-05-09T05:11:18.348Z,6.39
2023-05-09T05:12:00.761Z,6.40
2023-05-09T05:12:35.980Z,6.40
2023-05-09T05:13:09.348Z,6.42
2023-05-09T05:13:44.986Z,6.44
2023-05-09T05:14:18.270Z,6.45
2023-05-09T05:14:51.713Z,6.47
2023-05-09T05:15:27.137Z,6.46
2023-05-09T05:16:00.585Z,6.48
2023-05-09T05:16:33.905Z,6.50
2023-05-09T05:17:08.572Z,6.49
2023-05-09T05:17:42.117Z,6.48
2023-05-09T05:18:15.746Z,6.49
2023-05-09T05:18:49.462Z,6.48
2023-05-09T05:19:23.038Z,6.47
2023-05-09T05:19:57.329Z,6.49
2023-05-09T05:20:30.778Z,6.48
2023-05-09T05:21:04.615Z,6.49
2023-05-09T05:21:37.872Z,6.50
2023-05-09T05:22:11.318Z,6.49
2023-05-09T05:22:46.376Z,6.46
2023-05-09T05:23:24.217Z,6.47
2023-05-09T05:23:58.833Z,6.47
2023-05-09T05:24:32.208Z,6.49
2023-05-09T05:25:06.068Z,6.49
2023-05-09T05:25:39.617Z,6.48
2023-05-09T05:26:13.069Z,6.48
2023-05-09T05:26:46.576Z,6.49
2023-05-09T05:27:20.434Z,6.50
2023-05-09T05:27:53.970Z,6.51
2023-05-09T05:28:27.516Z,6.51
2023-05-09T05:29:01.019Z,6.51
2023-05-09T05:29:34.263Z,6.53
2023-05-09T05:30:08.173Z,6.55
2023-05-09T05:30:41.719Z,6.56
2023-05-09T05:31:15.025Z,6.56
2023-05-09T05:31:48.473Z,6.57
2023-05-09T05:32:21.785Z,6.59
2023-05-09T05:32:55.721Z,6.60
2023-05-09T05:33:29.376Z,6.61
2023-05-09T05:34:03.017Z,6.60
2023-05-09T05:34:36.773Z,6.62
2023-05-09T05:35:14.066Z,6.64
2023-05-09T05:35:47.629Z,6.66
2023-05-09T05:36:20.916Z,6.67
2023-05-09T05:36:54.230Z,6.68
2023-05-09T05:37:27.503Z,6.71
2023-05-09T05:38:01.257Z,6.73
2023-05-09T05:38:34.808Z,6.74
2023-05-09T05:39:08.157Z,6.76
2023-05-09T05:39:41.938Z,6.74
2023-05-09T05:40:15.397Z,6.77
2023-05-09T05:40:50.032Z,6.79
2023-05-09T05:41:23.689Z,6.82
2023-05-09T05:41:57.220Z,6.81
2023-05-09T05:42:30.972Z,6.79
2023-05-09T05:43:04.371Z,6.80
2023-05-09T05:43:38.093Z,6.81
2023-05-09T05:44:11.638Z,6.81
2023-05-09T05:44:45.138Z,6.77
2023-05-09T05:45:18.751Z,6.73
2023-05-09T05:45:55.067Z,6.74
2023-05-09T05:46:29.357Z,6.72
2023-05-09T05:47:02.614Z,6.77
2023-05-09T05:47:37.423Z,6.79
2023-05-09T05:48:11.244Z,6.79
2023-05-09T05:48:44.481Z,6.80
2023-05-09T05:49:17.752Z,6.82
2023-05-09T05:49:51.023Z,6.84
2023-05-09T05:50:24.358Z,6.85
2023-05-09T05:50:57.584Z,6.86
2023-05-09T05:51:32.668Z,6.88
2023-05-09T05:52:06.306Z,6.89
2023-05-09T05:52:40.721Z,6.90
2023-05-09T05:53:16.123Z,6.92
2023-05-09T05:53:49.915Z,6.94
2023-05-09T05:54:23.309Z,6.97
2023-05-09T05:54:56.617Z,7.00
2023-05-09T05:55:30.083Z,7.00
2023-05-09T05:56:03.725Z,7.03
2023-05-09T05:56:37.773Z,7.04
2023-05-09T05:57:12.238Z,7.06
2023-05-09T05:57:47.162Z,7.05
2023-05-09T05:58:20.868Z,7.06
2023-05-09T05:58:54.205Z,7.07
2023-05-09T05:59:27.474Z,7.08
2023-05-09T06:00:01.625Z,7.10
2023-05-09T06:00:34.985Z,7.09
2023-05-09T06:01:09.184Z,7.11
2023-05-09T06:01:42.446Z,7.11
2023-05-09T06:02:17.148Z,7.15
2023-05-09T06:02:50.574Z,7.18
2023-05-09T06:03:32.122Z,7.18
2023-05-09T06:04:08.492Z,7.18
2023-05-09T06:04:42.293Z,7.18
2023-05-09T06:05:15.887Z,7.19
2023-05-09T06:05:50.122Z,7.20
2023-05-09T06:06:23.599Z,7.20
2023-05-09T06:06:56.990Z,7.22
2023-05-09T06:07:30.707Z,7.26
2023-05-09T06:08:04.340Z,7.26
2023-05-09T06:08:38.822Z,7.26
2023-05-09T06:09:12.164Z,7.29
2023-05-09T06:09:45.328Z,7.29
2023-05-09T06:10:18.616Z,7.29
2023-05-09T06:10:51.968Z,7.30
2023-05-09T06:11:25.228Z,7.30
2023-05-09T06:11:59.039Z,7.33
2023-05-09T06:12:32.552Z,7.36
2023-05-09T06:13:05.937Z,7.39
2023-05-09T06:13:39.698Z,7.42
2023-05-09T06:14:12.959Z,7.45
2023-05-09T06:14:46.235Z,7.46
2023-05-09T06:15:19.779Z,7.46
2023-05-09T06:16:04.654Z,7.50
2023-05-09T06:16:45.092Z,7.51
2023-05-09T06:17:18.976Z,7.53
2023-05-09T06:17:52.257Z,7.56
2023-05-09T06:18:25.527Z,7.57
2023-05-09T06:18:58.788Z,7.60
2023-05-09T06:19:32.461Z,7.67
2023-05-09T06:20:06.705Z,7.67
2023-05-09T06:20:40.014Z,7.64
2023-05-09T06:21:13.310Z,7.65
2023-05-09T06:21:46.490Z,7.67
2023-05-09T06:22:19.813Z,7.70
2023-05-09T06:22:53.942Z,7.75
2023-05-09T06:23:27.194Z,7.81
2023-05-09T06:24:09.905Z,7.91
2023-05-09T06:24:47.707Z,8.12
2023-05-09T06:25:21.148Z,8.30
2023-05-09T06:25:54.428Z,8.48
2023-05-09T06:26:27.653Z,8.67
2023-05-09T06:27:01.228Z,8.86
2023-05-09T06:27:34.466Z,9.05
2023-05-09T06:28:07.772Z,9.25
2023-05-09T06:28:41.753Z,9.48
2023-05-09T06:29:15.656Z,9.65
2023-05-09T06:29:48.979Z,9.82
2023-05-09T06:30:26.217Z,9.98
2023-05-09T06:31:02.952Z,10.16
2023-05-09T06:31:38.724Z,10.31
2023-05-09T06:32:12.478Z,10.46
2023-05-09T06:32:45.821Z,10.60
2023-05-09T06:33:18.992Z,10.75
2023-05-09T06:33:52.222Z,10.91
2023-05-09T06:34:25.562Z,11.07
2023-05-09T06:34:58.951Z,11.24
2023-05-09T06:35:32.197Z,11.39
2023-05-09T06:36:05.820Z,11.54
2023-05-09T06:36:39.109Z,11.71
2023-05-09T06:37:12.374Z,11.83
2023-05-09T06:37:47.669Z,11.95
2023-05-09T06:38:22.196Z,12.09
2023-05-09T06:38:55.308Z,12.19
2023-05-09T06:39:28.925Z,12.33
2023-05-09T06:40:02.231Z,12.46
2023-05-09T06:40:35.808Z,12.60
2023-05-09T06:41:09.027Z,12.74
2023-05-09T06:41:42.486Z,12.88
2023-05-09T06:42:15.766Z,13.01
2023-05-09T06:42:50.187Z,13.14
2023-05-09T06:43:23.437Z,13.28
2023-05-09T06:43:56.653Z,13.42
2023-05-09T06:44:30.010Z,13.54
2023-05-09T06:45:03.429Z,13.67
2023-05-09T06:45:37.056Z,13.80
2023-05-09T06:46:10.493Z,13.93
2023-05-09T06:46:43.767Z,14.04
2023-05-09T06:47:17.002Z,14.15
2023-05-09T06:47:50.263Z,14.26
2023-05-09T06:48:26.981Z,14.40
2023-05-09T06:49:02.058Z,14.49
2023-05-09T06:49:35.281Z,14.55
2023-05-09T06:50:09.054Z,14.59
2023-05-09T06:50:42.351Z,14.62
2023-05-09T06:51:15.706Z,14.62
2023-05-09T06:51:49.052Z,14.70
2023-05-09T06:52:22.353Z,14.76
2023-05-09T06:52:55.796Z,14.86
2023-05-09T06:53:29.015Z,15.00
2023-05-09T06:54:02.293Z,15.08
2023-05-09T06:54:35.625Z,15.12
2023-05-09T06:55:09.606Z,15.12
2023-05-09T06:55:43.032Z,15.21
2023-05-09T06:56:18.341Z,15.19
2023-05-09T06:56:53.113Z,15.21
2023-05-09T06:57:26.474Z,15.28
2023-05-09T06:57:59.677Z,15.28
2023-05-09T06:58:32.967Z,15.40
2023-05-09T06:59:06.200Z,15.52
2023-05-09T06:59:39.443Z,15.61
2023-05-09T07:00:13.303Z,15.73
2023-05-09T07:00:47.672Z,15.86
2023-05-09T07:01:20.999Z,16.00
2023-05-09T07:01:54.205Z,16.08
2023-05-09T07:02:27.500Z,16.13
2023-05-09T07:03:01.293Z,16.14
2023-05-09T07:03:34.768Z,16.20
2023-05-09T07:04:08.136Z,16.14
2023-05-09T07:04:41.428Z,16.12
2023-05-09T07:05:16.519Z,16.17
2023-05-09T07:05:50.067Z,16.24
2023-05-09T07:06:24.025Z,16.26
2023-05-09T07:06:57.306Z,16.27
2023-05-09T07:07:30.752Z,16.23
2023-05-09T07:08:04.375Z,16.20
2023-05-09T07:08:37.657Z,16.25
2023-05-09T07:09:11.402Z,16.30
2023-05-09T07:09:44.694Z,16.32
2023-05-09T07:10:18.084Z,16.28
2023-05-09T07:10:51.571Z,16.25
2023-05-09T07:11:24.864Z,16.24
2023-05-09T07:11:58.121Z,16.26
2023-05-09T07:12:32.248Z,16.31
2023-05-09T07:13:06.332Z,16.35
2023-05-09T07:13:39.592Z,16.41
2023-05-09T07:14:13.064Z,16.50
2023-05-09T07:14:46.347Z,16.57
2023-05-09T07:15:32.432Z,16.61
2023-05-09T07:16:10.437Z,16.65
2023-05-09T07:16:43.802Z,16.65
2023-05-09T07:17:23.587Z,16.68
2023-05-09T07:17:57.726Z,16.73
2023-05-09T07:18:31.164Z,16.78
2023-05-09T07:19:04.413Z,16.87
2023-05-09T07:19:38.042Z,16.98
2023-05-09T07:20:11.736Z,17.06
2023-05-09T07:20:45.062Z,17.15
2023-05-09T07:21:18.265Z,17.18
2023-05-09T07:21:51.563Z,17.25
2023-05-09T07:22:24.836Z,17.40
2023-05-09T07:22:58.598Z,17.45
2023-05-09T07:23:31.792Z,17.54
2023-05-09T07:24:05.387Z,17.58
2023-05-09T07:24:38.771Z,17.63
2023-05-09T07:25:12.105Z,17.63
2023-05-09T07:25:45.680Z,17.69
2023-05-09T07:26:18.799Z,17.70
2023-05-09T07:26:52.053Z,17.78
2023-05-09T07:27:25.180Z,17.82
2023-05-09T07:27:58.511Z,17.86
2023-05-09T07:28:31.956Z,17.86
2023-05-09T07:29:05.311Z,17.92
2023-05-09T07:29:38.611Z,17.91
2023-05-09T07:30:12.185Z,17.88
2023-05-09T07:30:46.014Z,17.89
2023-05-09T07:31:19.618Z,17.99
2023-05-09T07:31:52.909Z,17.95
2023-05-09T07:32:28.947Z,17.93
2023-05-09T07:33:02.216Z,17.93
2023-05-09T07:33:35.701Z,17.92
2023-05-09T07:34:08.931Z,18.01
2023-05-09T07:34:42.355Z,18.00
2023-05-09T07:35:16.060Z,18.07
2023-05-09T07:35:49.907Z,18.13
2023-05-09T07:36:23.778Z,18.17
2023-05-09T07:36:58.852Z,18.23
2023-05-09T07:37:32.188Z,18.40
2023-05-09T07:38:06.618Z,18.48
2023-05-09T07:38:40.733Z,18.39
2023-05-09T07:39:13.952Z,18.41
2023-05-09T07:39:49.705Z,18.41
2023-05-09T07:40:23.008Z,18.38
2023-05-09T07:40:56.459Z,18.42
2023-05-09T07:41:29.667Z,18.52
2023-05-09T07:42:02.929Z,18.64
2023-05-09T07:42:36.089Z,18.73
2023-05-09T07:43:09.468Z,18.77
2023-05-09T07:43:42.828Z,18.84
2023-05-09T07:44:16.193Z,18.99
2023-05-09T07:44:49.490Z,19.14